Observation data for Plains on 02/20/2019      Previous  Date  Next       Current Mesonet Observations  Soil Data  Daily Summary Page  Observations in Plain Language
KPPS 200600Z 19004KT M07/M09 A2988 RMK A01 T10691087  RH  087%=      5-min Rain = 0
KPPS 200605Z 21002KT M06/M08 A2987 RMK A01 T10641080  RH  088%=      5-min Rain = 0
KPPS 200610Z 24003KT M06/M08 A2987 RMK A01 T10591080  RH  085%=      5-min Rain = 0
KPPS 200615Z 24004KT M06/M08 A2987 RMK A01 T10601082  RH  085%=      5-min Rain = 0
KPPS 200620Z 22004KT M06/M08 A2987 RMK A01 T10551076  RH  085%=      5-min Rain = 0
KPPS 200625Z 20004KT M06/M08 A2987 RMK A01 T10581083  RH  083%=      5-min Rain = 0
KPPS 200630Z 15005KT M07/M09 A2987 RMK A01 T10661090  RH  083%=      5-min Rain = 0
KPPS 200635Z 16005KT M07/M09 A2987 RMK A01 T10711091  RH  085%=      5-min Rain = 0
KPPS 200640Z 23005G10KT M07/M08 A2987 RMK A01 T10661083  RH  087%=      5-min Rain = 0
KPPS 200645Z 25007KT M05/M08 A2987 RMK A01 T10501077  RH  082%=      5-min Rain = 0
KPPS 200650Z 25008KT M05/M08 A2987 RMK A01 T10521081  RH  080%=      5-min Rain = 0
KPPS 200655Z 27008KT M06/M08 A2987 RMK A01 T10561083  RH  081%=      5-min Rain = 0
KPPS 200700Z 27009KT M06/M09 A2987 RMK A01 T10631087  RH  083%=      5-min Rain = 0
KPPS 200705Z 27010KT M06/M08 A2987 RMK A01 T10571080  RH  084%=      5-min Rain = 0
KPPS 200710Z 27010KT M06/M08 A2987 RMK A01 T10551080  RH  082%=      5-min Rain = 0
KPPS 200715Z 27010KT M06/M08 A2987 RMK A01 T10551081  RH  082%=      5-min Rain = 0
KPPS 200720Z 27010KT M06/M08 A2986 RMK A01 T10551081  RH  082%=      5-min Rain = 0
KPPS 200725Z 27010KT M05/M08 A2986 RMK A01 T10541081  RH  081%=      5-min Rain = 0
KPPS 200730Z 27008KT M06/M08 A2986 RMK A01 T10571084  RH  081%=      5-min Rain = 0
KPPS 200735Z 27007KT M06/M09 A2986 RMK A01 T10631088  RH  082%=      5-min Rain = 0
KPPS 200740Z 27007KT M07/M09 A2986 RMK A01 T10661090  RH  083%=      5-min Rain = 0
KPPS 200745Z 27007KT M07/M09 A2986 RMK A01 T10691091  RH  084%=      5-min Rain = 0
KPPS 200750Z 26007KT M07/M09 A2986 RMK A01 T10721094  RH  084%=      5-min Rain = 0
KPPS 200755Z 26007KT M08/M10 A2986 RMK A01 T10751095  RH  085%=      5-min Rain = 0
KPPS 200800Z 26007KT M07/M09 A2986 RMK A01 T10721091  RH  086%=      5-min Rain = 0
KPPS 200805Z 25007KT M07/M09 A2986 RMK A01 T10691090  RH  085%=      5-min Rain = 0
KPPS 200810Z 25008KT M07/M09 A2986 RMK A01 T10721094  RH  084%=      5-min Rain = 0
KPPS 200815Z 26009KT M08/M10 A2985 RMK A01 T10781098  RH  085%=      5-min Rain = 0
KPPS 200820Z 26008KT M08/M09 A2985 RMK A01 T10751094  RH  086%=      5-min Rain = 0
KPPS 200825Z 25007KT M07/M10 A2985 RMK A01 T10741095  RH  085%=      5-min Rain = 0
KPPS 200830Z 25007KT M07/M09 A2985 RMK A01 T10741094  RH  085%=      5-min Rain = 0
KPPS 200835Z 25008KT M07/M09 A2985 RMK A01 T10711092  RH  085%=      5-min Rain = 0
KPPS 200840Z 26007KT M07/M09 A2985 RMK A01 T10681090  RH  084%=      5-min Rain = 0
KPPS 200845Z 27007KT M06/M09 A2985 RMK A01 T10641088  RH  083%=      5-min Rain = 0
KPPS 200850Z 26008KT M06/M09 A2985 RMK A01 T10611086  RH  082%=      5-min Rain = 0
KPPS 200855Z 26006KT M06/M09 A2985 RMK A01 T10621089  RH  082%=      5-min Rain = 0
KPPS 200900Z 26006KT M06/M09 A2985 RMK A01 T10641089  RH  082%=      5-min Rain = 0
KPPS 200905Z 25006KT M07/M09 A2985 RMK A01 T10651090  RH  082%=      5-min Rain = 0
KPPS 200910Z 24007KT M06/M09 A2985 RMK A01 T10611086  RH  082%=      5-min Rain = 0
KPPS 200915Z 24007KT M06/M09 A2986 RMK A01 T10581085  RH  081%=      5-min Rain = 0
KPPS 200920Z 24008KT M05/M08 A2986 RMK A01 T10521083  RH  079%=      5-min Rain = 0
KPPS 200925Z 24009KT M05/M08 A2986 RMK A01 T10461080  RH  077%=      5-min Rain = 0
KPPS 200930Z 23009KT M04/M08 A2986 RMK A01 T10381075  RH  075%=      5-min Rain = 0
KPPS 200935Z 22008KT M04/M08 A2986 RMK A01 T10381077  RH  074%=      5-min Rain = 0
KPPS 200940Z 22008KT M04/M08 A2986 RMK A01 T10441080  RH  076%=      5-min Rain = 0
KPPS 200945Z 22008KT M05/M08 A2986 RMK A01 T10471081  RH  077%=      5-min Rain = 0
KPPS 200950Z 23008KT M05/M08 A2985 RMK A01 T10491082  RH  078%=      5-min Rain = 0
KPPS 200955Z 23009KT M05/M08 A2985 RMK A01 T10491082  RH  078%=      5-min Rain = 0
KPPS 201000Z 24010KT M05/M08 A2985 RMK A01 T10471081  RH  077%=      5-min Rain = 0
KPPS 201005Z 24009KT M05/M08 A2985 RMK A01 T10481082  RH  077%=      5-min Rain = 0
KPPS 201010Z 25009KT M05/M08 A2985 RMK A01 T10501083  RH  078%=      5-min Rain = 0
KPPS 201015Z 25008KT M05/M09 A2985 RMK A01 T10541085  RH  079%=      5-min Rain = 0
KPPS 201020Z 25008KT M06/M09 A2985 RMK A01 T10581087  RH  079%=      5-min Rain = 0
KPPS 201025Z 25009KT M06/M09 A2984 RMK A01 T10601089  RH  080%=      5-min Rain = 0
KPPS 201030Z 25008KT M06/M09 A2984 RMK A01 T10611089  RH  081%=      5-min Rain = 0
KPPS 201035Z 25008KT M06/M09 A2984 RMK A01 T10621090  RH  080%=      5-min Rain = 0
KPPS 201040Z 25008KT M06/M09 A2985 RMK A01 T10631091  RH  081%=      5-min Rain = 0
KPPS 201045Z 24007KT M06/M09 A2985 RMK A01 T10641091  RH  081%=      5-min Rain = 0
KPPS 201050Z 23007KT M06/M09 A2985 RMK A01 T10581088  RH  080%=      5-min Rain = 0
KPPS 201055Z 23007KT M06/M09 A2985 RMK A01 T10581089  RH  079%=      5-min Rain = 0
KPPS 201100Z 24008KT M06/M09 A2985 RMK A01 T10551088  RH  078%=      5-min Rain = 0
KPPS 201105Z 25008KT M06/M09 A2985 RMK A01 T10581090  RH  078%=      5-min Rain = 0
KPPS 201110Z 25008KT M06/M10 A2985 RMK A01 T10641095  RH  078%=      5-min Rain = 0
KPPS 201115Z 25009KT M07/M09 A2984 RMK A01 T10651093  RH  080%=      5-min Rain = 0
KPPS 201120Z 25008KT M06/M09 A2984 RMK A01 T10611093  RH  078%=      5-min Rain = 0
KPPS 201125Z 24008KT M07/M10 A2984 RMK A01 T10661097  RH  079%=      5-min Rain = 0
KPPS 201130Z 24008KT M07/M10 A2984 RMK A01 T10681097  RH  079%=      5-min Rain = 0
KPPS 201135Z 24008KT M07/M10 A2984 RMK A01 T10671097  RH  079%=      5-min Rain = 0
KPPS 201140Z 24008KT M06/M10 A2984 RMK A01 T10641095  RH  078%=      5-min Rain = 0
KPPS 201145Z 24009KT M06/M10 A2985 RMK A01 T10631095  RH  078%=      5-min Rain = 0
KPPS 201150Z 24009KT M06/M10 A2985 RMK A01 T10641096  RH  078%=      5-min Rain = 0
KPPS 201155Z 25009KT M07/M10 A2985 RMK A01 T10701103  RH  077%=      5-min Rain = 0
KPPS 201200Z 25010KT M08/M11 A2985 RMK A01 T10781108  RH  079%=      5-min Rain = 0
KPPS 201205Z 25009KT M08/M11 A2985 RMK A01 T10781105  RH  081%=      5-min Rain = 0
KPPS 201210Z 26009KT M07/M10 A2985 RMK A01 T10691099  RH  079%=      5-min Rain = 0
KPPS 201215Z 26009KT M07/M10 A2985 RMK A01 T10671100  RH  077%=      5-min Rain = 0
KPPS 201220Z 25008KT M07/M10 A2985 RMK A01 T10711103  RH  077%=      5-min Rain = 0
KPPS 201225Z 25009KT M08/M11 A2985 RMK A01 T10751105  RH  079%=      5-min Rain = 0
KPPS 201230Z 25009KT M08/M11 A2985 RMK A01 T10751105  RH  079%=      5-min Rain = 0
KPPS 201235Z 26009KT M07/M10 A2985 RMK A01 T10711102  RH  078%=      5-min Rain = 0
KPPS 201240Z 26010KT M07/M10 A2985 RMK A01 T10681102  RH  077%=      5-min Rain = 0
KPPS 201245Z 25009KT M06/M10 A2986 RMK A01 T10641101  RH  075%=      5-min Rain = 0
KPPS 201250Z 25009KT M06/M10 A2986 RMK A01 T10631102  RH  074%=      5-min Rain = 0
KPPS 201255Z 25009KT M06/M10 A2986 RMK A01 T10641102  RH  074%=      5-min Rain = 0
KPPS 201300Z 25009KT M06/M10 A2986 RMK A01 T10621101  RH  074%=      5-min Rain = 0
KPPS 201305Z 25009KT M06/M10 A2986 RMK A01 T10561099  RH  071%=      5-min Rain = 0
KPPS 201310Z 25009KT M05/M10 A2986 RMK A01 T10541099  RH  070%=      5-min Rain = 0
KPPS 201315Z 25009KT M05/M10 A2986 RMK A01 T10531099  RH  070%=      5-min Rain = 0
KPPS 201320Z 25008KT M05/M10 A2986 RMK A01 T10541100  RH  070%=      5-min Rain = 0
KPPS 201325Z 26008KT M06/M10 A2987 RMK A01 T10551101  RH  070%=      5-min Rain = 0
KPPS 201330Z 26009KT M06/M10 A2986 RMK A01 T10571102  RH  070%=      5-min Rain = 0
KPPS 201335Z 27009KT M06/M10 A2986 RMK A01 T10581103  RH  070%=      5-min Rain = 0
KPPS 201340Z 28010KT M05/M10 A2986 RMK A01 T10541101  RH  069%=      5-min Rain = 0
KPPS 201345Z 28010KT M05/M10 A2986 RMK A01 T10531102  RH  068%=      5-min Rain = 0
KPPS 201350Z 27009KT M05/M10 A2986 RMK A01 T10541102  RH  069%=      5-min Rain = 0
KPPS 201355Z 27009KT M06/M10 A2986 RMK A01 T10561101  RH  070%=      5-min Rain = 0
KPPS 201400Z 27009KT M06/M10 A2986 RMK A01 T10561101  RH  070%=      5-min Rain = 0
KPPS 201405Z 26009KT M06/M10 A2987 RMK A01 T10561100  RH  071%=      5-min Rain = 0
KPPS 201410Z 25009KT M05/M10 A2987 RMK A01 T10541099  RH  071%=      5-min Rain = 0
KPPS 201415Z 24007KT M05/M10 A2988 RMK A01 T10521098  RH  070%=      5-min Rain = 0
KPPS 201420Z 22005KT M05/M10 A2988 RMK A01 T10511098  RH  069%=      5-min Rain = 0
KPPS 201425Z 21004KT M05/M10 A2989 RMK A01 T10481096  RH  069%=      5-min Rain = 0
KPPS 201430Z 21004KT M04/M09 A2989 RMK A01 T10411093  RH  067%=      5-min Rain = 0
KPPS 201435Z 22004KT M04/M09 A2989 RMK A01 T10351092  RH  064%=      5-min Rain = 0
KPPS 201440Z 22003KT M03/M09 A2989 RMK A01 T10301090  RH  063%=      5-min Rain = 0
KPPS 201445Z 23004KT M02/M09 A2989 RMK A01 T10241088  RH  061%=      5-min Rain = 0
KPPS 201450Z 22004KT M02/M09 A299 RMK A01 T10181088  RH  059%=      5-min Rain = 0
KPPS 201455Z 23005KT M01/M09 A299 RMK A01 T10121087  RH  057%=      5-min Rain = 0
KPPS 201500Z 22005KT M01/M09 A299 RMK A01 T10091090  RH  054%=      5-min Rain = 0
KPPS 201505Z 24006KT M01/M09 A299 RMK A01 T10081091  RH  053%=      5-min Rain = 0
KPPS 201510Z 25012KT 00/M09 A299 RMK A01 T00041091  RH  049%=      5-min Rain = 0
KPPS 201515Z 26011KT 01/M10 A299 RMK A01 T00121095  RH  045%=      5-min Rain = 0
KPPS 201520Z 26012KT 01/M10 A299 RMK A01 T00141098  RH  043%=      5-min Rain = 0
KPPS 201525Z 26011KT 02/M10 A2991 RMK A01 T00181099  RH  042%=      5-min Rain = 0
KPPS 201530Z 26011KT 02/M10 A2991 RMK A01 T00231100  RH  040%=      5-min Rain = 0
KPPS 201535Z 26011G18KT 03/M10 A2991 RMK A01 T00291103  RH  037%=      5-min Rain = 0
KPPS 201540Z 26014KT 03/M11 A2991 RMK A01 T00341108  RH  034%=      5-min Rain = 0
KPPS 201545Z 26014G19KT 04/M11 A2991 RMK A01 T00381112  RH  032%=      5-min Rain = 0
KPPS 201550Z 26015KT 04/M11 A2991 RMK A01 T00411113  RH  031%=      5-min Rain = 0
KPPS 201555Z 26016G21KT 04/M12 A2991 RMK A01 T00421117  RH  030%=      5-min Rain = 0
KPPS 201600Z 26013G18KT 05/M12 A2991 RMK A01 T00451115  RH  030%=      5-min Rain = 0
KPPS 201605Z 26014KT 05/M11 A2991 RMK A01 T00471112  RH  030%=      5-min Rain = 0
KPPS 201610Z 27014KT 05/M11 A2991 RMK A01 T00501113  RH  030%=      5-min Rain = 0
KPPS 201615Z 28016G23KT 05/M11 A2991 RMK A01 T00481114  RH  030%=      5-min Rain = 0
KPPS 201620Z 28018KT 05/M11 A2991 RMK A01 T00511114  RH  029%=      5-min Rain = 0
KPPS 201625Z 29017G24KT 05/M12 A2991 RMK A01 T00501116  RH  029%=      5-min Rain = 0
KPPS 201630Z 28016G21KT 06/M11 A2991 RMK A01 T00551112  RH  029%=      5-min Rain = 0
KPPS 201635Z 28016G22KT 05/M11 A2991 RMK A01 T00541114  RH  028%=      5-min Rain = 0
KPPS 201640Z 29017KT 06/M12 A2991 RMK A01 T00551116  RH  028%=      5-min Rain = 0
KPPS 201645Z 28015G25KT 06/M11 A2991 RMK A01 T00571114  RH  028%=      5-min Rain = 0
KPPS 201650Z 29016G21KT 06/M12 A2991 RMK A01 T00601116  RH  027%=      5-min Rain = 0
KPPS 201655Z 28016G21KT 06/M12 A2991 RMK A01 T00591116  RH  027%=      5-min Rain = 0
KPPS 201700Z 29015G20KT 06/M12 A2991 RMK A01 T00601116  RH  027%=      5-min Rain = 0
KPPS 201705Z 29016KT 06/M12 A299 RMK A01 T00641115  RH  026%=      5-min Rain = 0
KPPS 201710Z 30014G21KT 06/M12 A299 RMK A01 T00641117  RH  026%=      5-min Rain = 0
KPPS 201715Z 29015G21KT 07/M12 A299 RMK A01 T00661116  RH  026%=      5-min Rain = 0
KPPS 201720Z 28013G21KT 07/M11 A2991 RMK A01 T00681114  RH  026%=      5-min Rain = 0
KPPS 201725Z 27013G18KT 07/M12 A299 RMK A01 T00681116  RH  025%=      5-min Rain = 0
KPPS 201730Z 29013G19KT 07/M12 A299 RMK A01 T00671116  RH  026%=      5-min Rain = 0
KPPS 201735Z 30014G20KT 07/M12 A299 RMK A01 T00681117  RH  025%=      5-min Rain = 0
KPPS 201740Z 28014G20KT 07/M12 A299 RMK A01 T00711116  RH  025%=      5-min Rain = 0
KPPS 201745Z 26014G19KT 07/M12 A299 RMK A01 T00721117  RH  024%=      5-min Rain = 0
KPPS 201750Z 27014KT 07/M12 A299 RMK A01 T00711120  RH  024%=      5-min Rain = 0
KPPS 201755Z 27013G20KT 07/M12 A299 RMK A01 T00701117  RH  025%=      5-min Rain = 0
KPPS 201800Z 28012G18KT 07/M12 A299 RMK A01 T00711118  RH  025%=      5-min Rain = 0
KPPS 201805Z 26012G17KT 07/M12 A299 RMK A01 T00741115  RH  025%=      5-min Rain = 0
KPPS 201810Z 27011KT 07/M12 A299 RMK A01 T00731115  RH  025%=      5-min Rain = 0
KPPS 201815Z 27011G17KT 08/M11 A299 RMK A01 T00751114  RH  025%=      5-min Rain = 0
KPPS 201820Z 28012G17KT 08/M11 A299 RMK A01 T00761114  RH  024%=      5-min Rain = 0
KPPS 201825Z 27011G18KT 08/M11 A2989 RMK A01 T00801111  RH  024%=      5-min Rain = 0
KPPS 201830Z 27011KT 08/M11 A2989 RMK A01 T00781114  RH  024%=      5-min Rain = 0
KPPS 201835Z 26009G14KT 08/M11 A2989 RMK A01 T00801110  RH  025%=      5-min Rain = 0
KPPS 201840Z 25010G16KT 08/M11 A2989 RMK A01 T00841113  RH  023%=      5-min Rain = 0
KPPS 201845Z 24007KT 08/M12 A2988 RMK A01 T00811115  RH  024%=      5-min Rain = 0
KPPS 201850Z 23010KT 09/M12 A2988 RMK A01 T00851119  RH  022%=      5-min Rain = 0
KPPS 201855Z 24012G18KT 09/M12 A2987 RMK A01 T00871122  RH  021%=      5-min Rain = 0
KPPS 201900Z 25012G17KT 09/M12 A2987 RMK A01 T00891122  RH  021%=      5-min Rain = 0
KPPS 201905Z 24010KT 09/M13 A2987 RMK A01 T00861127  RH  021%=      5-min Rain = 0
KPPS 201910Z 24010G15KT 09/M13 A2986 RMK A01 T00881126  RH  020%=      5-min Rain = 0
KPPS 201915Z 24012KT 09/M13 A2986 RMK A01 T00901129  RH  020%=      5-min Rain = 0
KPPS 201920Z 25010G15KT 09/M12 A2986 RMK A01 T00911124  RH  020%=      5-min Rain = 0
KPPS 201925Z 23009KT 09/M13 A2986 RMK A01 T00891130  RH  020%=      5-min Rain = 0
KPPS 201930Z 23009KT 09/M13 A2985 RMK A01 T00911128  RH  020%=      5-min Rain = 0
KPPS 201935Z 25006KT 09/M13 A2985 RMK A01 T00891128  RH  020%=      5-min Rain = 0
KPPS 201940Z 25010G17KT 09/M12 A2984 RMK A01 T00941123  RH  020%=      5-min Rain = 0
KPPS 201945Z 24007KT 09/M13 A2984 RMK A01 T00931128  RH  019%=      5-min Rain = 0
KPPS 201950Z 22011KT 09/M14 A2984 RMK A01 T00941137  RH  018%=      5-min Rain = 0
KPPS 201955Z 23008KT 10/M14 A2984 RMK A01 T00951138  RH  018%=      5-min Rain = 0
KPPS 202000Z 21009G14KT 10/M14 A2984 RMK A01 T00991137  RH  017%=      5-min Rain = 0
KPPS 202005Z 23006G13KT 10/M13 A2983 RMK A01 T01031131  RH  018%=      5-min Rain = 0
KPPS 202010Z 21009KT 11/M13 A2982 RMK A01 T01061129  RH  018%=      5-min Rain = 0
KPPS 202015Z 21007G14KT 11/M14 A2982 RMK A01 T01051142  RH  016%=      5-min Rain = 0
KPPS 202020Z 20007G13KT 11/M14 A2982 RMK A01 T01051137  RH  017%=      5-min Rain = 0
KPPS 202025Z 17008G16KT 11/M14 A2981 RMK A01 T01081136  RH  017%=      5-min Rain = 0
KPPS 202030Z 22011KT 11/M13 A2981 RMK A01 T01101134  RH  016%=      5-min Rain = 0
KPPS 202035Z 18009KT 11/M14 A2981 RMK A01 T01071138  RH  016%=      5-min Rain = 0
KPPS 202040Z 19011KT 11/M14 A2981 RMK A01 T01081139  RH  016%=      5-min Rain = 0
KPPS 202045Z 19012KT 11/M14 A2981 RMK A01 T01131140  RH  015%=      5-min Rain = 0
KPPS 202050Z 18011G16KT 11/M15 A2981 RMK A01 T01101145  RH  015%=      5-min Rain = 0
KPPS 202055Z 20011G18KT 11/M15 A298 RMK A01 T01131146  RH  015%=      5-min Rain = 0
KPPS 202100Z 21009G16KT 11/M15 A298 RMK A01 T01131150  RH  014%=      5-min Rain = 0
KPPS 202105Z 21013KT 11/M15 A298 RMK A01 T01131154  RH  014%=      5-min Rain = 0
KPPS 202110Z 23013G18KT 11/M16 A298 RMK A01 T01111157  RH  014%=      5-min Rain = 0
KPPS 202115Z 22009G15KT 11/M16 A298 RMK A01 T01141159  RH  013%=      5-min Rain = 0
KPPS 202120Z 20010G15KT 11/M16 A298 RMK A01 T01131159  RH  013%=      5-min Rain = 0
KPPS 202125Z 21013KT 12/M16 A298 RMK A01 T01161162  RH  013%=      5-min Rain = 0
KPPS 202130Z 22013KT 12/M17 A298 RMK A01 T01151166  RH  012%=      5-min Rain = 0
KPPS 202135Z 23011G16KT 11/M17 A298 RMK A01 T01101166  RH  013%=      5-min Rain = 0
KPPS 202140Z 23011G17KT 11/M16 A298 RMK A01 T01131159  RH  013%=      5-min Rain = 0
KPPS 202145Z 22011KT 11/M17 A298 RMK A01 T01121168  RH  012%=      5-min Rain = 0
KPPS 202150Z 21009G16KT 12/M17 A2979 RMK A01 T01161168  RH  012%=      5-min Rain = 0
KPPS 202155Z 23012G17KT 12/M17 A2979 RMK A01 T01191172  RH  011%=      5-min Rain = 0
KPPS 202200Z 23012G17KT 12/M17 A2979 RMK A01 T01191174  RH  011%=      5-min Rain = 0
KPPS 202205Z 22011G16KT 12/M17 A2979 RMK A01 T01211174  RH  011%=      5-min Rain = 0
KPPS 202210Z 21013G18KT 12/M18 A2979 RMK A01 T01211175  RH  011%=      5-min Rain = 0
KPPS 202215Z 22011G19KT 12/M17 A2979 RMK A01 T01241169  RH  011%=      5-min Rain = 0
KPPS 202220Z 22015KT 12/M16 A2978 RMK A01 T01241156  RH  013%=      5-min Rain = 0
KPPS 202225Z 21013G19KT 12/M16 A2979 RMK A01 T01181160  RH  013%=      5-min Rain = 0
KPPS 202230Z 20014KT 12/M16 A2978 RMK A01 T01161159  RH  013%=      5-min Rain = 0
KPPS 202235Z 20014KT 12/M16 A2978 RMK A01 T01151159  RH  013%=      5-min Rain = 0
KPPS 202240Z 21011KT 12/M16 A2978 RMK A01 T01161163  RH  013%=      5-min Rain = 0
KPPS 202245Z 21013G18KT 12/M16 A2978 RMK A01 T01151160  RH  013%=      5-min Rain = 0
KPPS 202250Z 21013KT 12/M16 A2978 RMK A01 T01151164  RH  012%=      5-min Rain = 0
KPPS 202255Z 20011G16KT 11/M17 A2978 RMK A01 T01141165  RH  012%=      5-min Rain = 0
KPPS 202300Z 21012KT 12/M17 A2978 RMK A01 T01171167  RH  012%=      5-min Rain = 0
KPPS 202305Z 21012KT 12/M17 A2978 RMK A01 T01181170  RH  012%=      5-min Rain = 0
KPPS 202310Z 20013KT 12/M17 A2979 RMK A01 T01161170  RH  012%=      5-min Rain = 0
KPPS 202315Z 20012KT 12/M17 A2979 RMK A01 T01151168  RH  012%=      5-min Rain = 0
KPPS 202320Z 18014G20KT 11/M17 A2978 RMK A01 T01141165  RH  012%=      5-min Rain = 0
KPPS 202325Z 18013G18KT 11/M16 A2979 RMK A01 T01101163  RH  013%=      5-min Rain = 0
KPPS 202330Z 19012G17KT 11/M16 A2979 RMK A01 T01091164  RH  013%=      5-min Rain = 0
KPPS 202335Z 20013KT 11/M17 A2979 RMK A01 T01091167  RH  013%=      5-min Rain = 0
KPPS 202340Z 21013KT 11/M17 A2979 RMK A01 T01091170  RH  012%=      5-min Rain = 0
KPPS 202345Z 21012KT 11/M17 A2979 RMK A01 T01091173  RH  012%=      5-min Rain = 0
KPPS 202350Z 21011G16KT 11/M17 A2979 RMK A01 T01081171  RH  012%=      5-min Rain = 0
KPPS 202355Z 20014G20KT 11/M18 A2979 RMK A01 T01071175  RH  012%=      5-min Rain = 0
KPPS 210000Z 20014KT 11/M17 A2978 RMK A01 T01061173  RH  012%=      5-min Rain = 0
KPPS 210005Z 20014KT 11/M17 A2978 RMK A01 T01051172  RH  012%=      5-min Rain = 0
KPPS 210010Z 19012G17KT 11/M17 A2978 RMK A01 T01051170  RH  013%=      5-min Rain = 0
KPPS 210015Z 18012KT 10/M17 A2979 RMK A01 T01021170  RH  013%=      5-min Rain = 0
KPPS 210020Z 18010KT 10/M18 A2979 RMK A01 T01021175  RH  012%=      5-min Rain = 0
KPPS 210025Z 16007KT 10/M18 A2979 RMK A01 T01011176  RH  012%=      5-min Rain = 0
KPPS 210030Z 14010KT 10/M18 A2979 RMK A01 T01021178  RH  012%=      5-min Rain = 0
KPPS 210035Z 14010KT 10/M18 A2979 RMK A01 T01011178  RH  012%=      5-min Rain = 0
KPPS 210040Z 17009KT 10/M18 A2979 RMK A01 T00991176  RH  013%=      5-min Rain = 0
KPPS 210045Z 19010KT 09/M17 A2979 RMK A01 T00931173  RH  013%=      5-min Rain = 0
KPPS 210050Z 19010KT 09/M17 A298 RMK A01 T00931173  RH  013%=      5-min Rain = 0
KPPS 210055Z 18009KT 09/M17 A298 RMK A01 T00901173  RH  014%=      5-min Rain = 0
KPPS 210100Z 18009KT 09/M17 A298 RMK A01 T00881172  RH  014%=      5-min Rain = 0
KPPS 210105Z 17009KT 08/M17 A298 RMK A01 T00841172  RH  014%=      5-min Rain = 0
KPPS 210110Z 17009KT 09/M17 A298 RMK A01 T00851171  RH  014%=      5-min Rain = 0
KPPS 210115Z 16007KT 08/M17 A2981 RMK A01 T00841169  RH  015%=      5-min Rain = 0
KPPS 210120Z 15006KT 09/M17 A2981 RMK A01 T00851166  RH  015%=      5-min Rain = 0
KPPS 210125Z 16007KT 08/M16 A2981 RMK A01 T00811164  RH  016%=      5-min Rain = 0
KPPS 210130Z 18010KT 08/M16 A2981 RMK A01 T00761161  RH  017%=      5-min Rain = 0
KPPS 210135Z 17012KT 08/M16 A2981 RMK A01 T00761157  RH  017%=      5-min Rain = 0
KPPS 210140Z 17010KT 08/M16 A2981 RMK A01 T00781156  RH  017%=      5-min Rain = 0
KPPS 210145Z 17009KT 08/M16 A2981 RMK A01 T00781155  RH  017%=      5-min Rain = 0
KPPS 210150Z 18010KT 07/M15 A2982 RMK A01 T00741152  RH  018%=      5-min Rain = 0
KPPS 210155Z 17010KT 08/M15 A2982 RMK A01 T00751147  RH  019%=      5-min Rain = 0
KPPS 210200Z 17009KT 08/M15 A2982 RMK A01 T00771147  RH  019%=      5-min Rain = 0
KPPS 210205Z 16008KT 08/M15 A2982 RMK A01 T00751147  RH  019%=      5-min Rain = 0
KPPS 210210Z 17008KT 07/M15 A2982 RMK A01 T00711146  RH  019%=      5-min Rain = 0
KPPS 210215Z 17008KT 07/M15 A2982 RMK A01 T00671146  RH  020%=      5-min Rain = 0
KPPS 210220Z 17008KT 07/M14 A2982 RMK A01 T00651144  RH  021%=      5-min Rain = 0
KPPS 210225Z 17009KT 07/M14 A2981 RMK A01 T00661142  RH  021%=      5-min Rain = 0
KPPS 210230Z 17009KT 07/M14 A2981 RMK A01 T00701142  RH  020%=      5-min Rain = 0
KPPS 210235Z 17009KT 07/M14 A2981 RMK A01 T00711141  RH  020%=      5-min Rain = 0
KPPS 210240Z 17009KT 07/M14 A2981 RMK A01 T00681140  RH  021%=      5-min Rain = 0
KPPS 210245Z 17008KT 07/M14 A2981 RMK A01 T00671139  RH  021%=      5-min Rain = 0
KPPS 210250Z 16008KT 07/M14 A2982 RMK A01 T00671139  RH  021%=      5-min Rain = 0
KPPS 210255Z 16008KT 07/M14 A2982 RMK A01 T00661139  RH  021%=      5-min Rain = 0
KPPS 210300Z 16008KT 07/M14 A2982 RMK A01 T00661137  RH  022%=      5-min Rain = 0
KPPS 210305Z 16008KT 07/M14 A2982 RMK A01 T00691137  RH  021%=      5-min Rain = 0
KPPS 210310Z 16008KT 07/M14 A2981 RMK A01 T00691136  RH  021%=      5-min Rain = 0
KPPS 210315Z 16008KT 07/M14 A2981 RMK A01 T00681135  RH  022%=      5-min Rain = 0
KPPS 210320Z 16008KT 07/M13 A2982 RMK A01 T00661134  RH  022%=      5-min Rain = 0
KPPS 210325Z 15008KT 06/M13 A2982 RMK A01 T00641133  RH  023%=      5-min Rain = 0
KPPS 210330Z 15008KT 06/M13 A2982 RMK A01 T00601134  RH  023%=      5-min Rain = 0
KPPS 210335Z 15008KT 06/M13 A2982 RMK A01 T00571133  RH  024%=      5-min Rain = 0
KPPS 210340Z 15008KT 05/M13 A2982 RMK A01 T00531133  RH  025%=      5-min Rain = 0
KPPS 210345Z 15008KT 05/M13 A2982 RMK A01 T00511131  RH  025%=      5-min Rain = 0
KPPS 210350Z 16009KT 06/M13 A2982 RMK A01 T00551130  RH  025%=      5-min Rain = 0
KPPS 210355Z 17010KT 06/M13 A2983 RMK A01 T00601130  RH  024%=      5-min Rain = 0
KPPS 210400Z 16009KT 06/M13 A2982 RMK A01 T00581131  RH  024%=      5-min Rain = 0
KPPS 210405Z 17008KT 06/M13 A2983 RMK A01 T00551130  RH  025%=      5-min Rain = 0
KPPS 210410Z 17008KT 05/M13 A2983 RMK A01 T00521130  RH  025%=      5-min Rain = 0
KPPS 210415Z 17008KT 05/M13 A2983 RMK A01 T00511129  RH  026%=      5-min Rain = 0
KPPS 210420Z 17007KT 05/M13 A2983 RMK A01 T00481129  RH  026%=      5-min Rain = 0
KPPS 210425Z 17007KT 05/M13 A2983 RMK A01 T00461129  RH  027%=      5-min Rain = 0
KPPS 210430Z 17007KT 04/M13 A2983 RMK A01 T00441128  RH  027%=      5-min Rain = 0
KPPS 210435Z 17007KT 04/M13 A2983 RMK A01 T00411128  RH  028%=      5-min Rain = 0
KPPS 210440Z 16006KT 04/M13 A2983 RMK A01 T00381128  RH  028%=      5-min Rain = 0
KPPS 210445Z 16005KT 04/M13 A2982 RMK A01 T00361128  RH  029%=      5-min Rain = 0
KPPS 210450Z 15005KT 03/M13 A2982 RMK A01 T00341128  RH  029%=      5-min Rain = 0
KPPS 210455Z 15005KT 03/M13 A2982 RMK A01 T00321128  RH  029%=      5-min Rain = 0
KPPS 210500Z 16006KT 03/M13 A2982 RMK A01 T00331125  RH  030%=      5-min Rain = 0
KPPS 210505Z 17007KT 04/M12 A2982 RMK A01 T00371121  RH  030%=      5-min Rain = 0
KPPS 210510Z 17008KT 04/M12 A2982 RMK A01 T00411119  RH  030%=      5-min Rain = 0
KPPS 210515Z 17008KT 04/M12 A2982 RMK A01 T00431118  RH  030%=      5-min Rain = 0
KPPS 210520Z 17008KT 04/M12 A2983 RMK A01 T00431117  RH  030%=      5-min Rain = 0
KPPS 210525Z 17008KT 04/M12 A2982 RMK A01 T00441116  RH  030%=      5-min Rain = 0
KPPS 210530Z 17008KT 05/M12 A2982 RMK A01 T00451115  RH  030%=      5-min Rain = 0
KPPS 210535Z 16008KT 05/M12 A2982 RMK A01 T00461115  RH  030%=      5-min Rain = 0
KPPS 210540Z 16008KT 05/M11 A2982 RMK A01 T00461114  RH  030%=      5-min Rain = 0
KPPS 210545Z 16008KT 05/M11 A2982 RMK A01 T00451114  RH  030%=      5-min Rain = 0
KPPS 210550Z 17008KT 05/M11 A2982 RMK A01 T00461113  RH  030%=      5-min Rain = 0
KPPS 210555Z 16008KT 05/M11 A2982 RMK A01 T00451112  RH  031%=      5-min Rain = 0

Page generated in 0.0181 seconds.